Time;durP1;ratioP1;P1;durP2;ratioP2;P2;SDS_P1;SDS_P2;PMS_P1;PMS_P2;Temp;Humidity;BMP_temperature;BMP_pressure;BME280_temperature;BME280_humidity;BME280_pressure;Samples;Min_cycle;Max_cycle;Signal;HPM_P1;HPM_P2
2021/07/11 00:00:43;;;;;;;6.22;4.20;;;19.80;70.70;;;;;;2072764;28;20026;-84
2021/07/11 00:01:44;;;;;;;5.55;4.00;;;19.80;70.70;;;;;;2064724;28;20026;-84
2021/07/11 00:02:45;;;;;;;5.72;4.20;;;19.80;70.80;;;;;;2073085;28;20026;-84
2021/07/11 00:03:45;;;;;;;5.40;3.80;;;19.80;70.80;;;;;;2081104;28;20122;-84
2021/07/11 00:04:46;;;;;;;5.78;4.00;;;19.70;70.80;;;;;;2064863;28;20500;-84
2021/07/11 00:05:46;;;;;;;6.30;4.18;;;19.80;70.90;;;;;;2072977;28;20034;-84
2021/07/11 00:06:47;;;;;;;6.00;4.50;;;19.80;71.00;;;;;;2072777;28;20030;-84
2021/07/11 00:07:48;;;;;;;5.53;3.95;;;19.70;71.00;;;;;;2064809;28;20042;-84
2021/07/11 00:08:49;;;;;;;6.43;4.40;;;19.80;71.00;;;;;;2081190;28;20052;-84
2021/07/11 00:09:49;;;;;;;5.80;4.28;;;19.80;71.10;;;;;;2080961;28;20030;-83
2021/07/11 00:10:51;;;;;;;6.28;4.63;;;19.80;71.10;;;;;;2081114;28;20034;-84
2021/07/11 00:11:51;;;;;;;6.05;4.10;;;19.70;71.10;;;;;;2072696;28;20488;-84
2021/07/11 00:12:53;;;;;;;6.07;4.63;;;19.70;71.20;;;;;;2067459;28;20035;-84
2021/07/11 00:13:53;;;;;;;6.13;4.25;;;19.70;71.30;;;;;;2072764;28;20052;-84
2021/07/11 00:14:54;;;;;;;6.05;4.22;;;19.70;71.30;;;;;;2064708;28;20106;-84
2021/07/11 00:15:55;;;;;;;5.82;4.22;;;19.70;71.40;;;;;;2064650;28;20026;-84
2021/07/11 00:16:56;;;;;;;6.43;4.75;;;19.70;71.50;;;;;;2073069;28;20026;-84
2021/07/11 00:17:57;;;;;;;6.30;4.45;;;19.70;71.50;;;;;;2071478;28;20018;-84
2021/07/11 00:18:58;;;;;;;5.20;4.20;;;19.70;71.50;;;;;;2074567;28;20030;-84
2021/07/11 00:19:59;;;;;;;6.38;4.55;;;19.70;71.60;;;;;;2082681;28;20026;-84
2021/07/11 00:21:00;;;;;;;6.22;4.50;;;19.70;71.70;;;;;;2074343;28;20033;-83
2021/07/11 00:22:01;;;;;;;5.72;4.45;;;19.70;71.70;;;;;;2066505;28;20477;-84
2021/07/11 00:23:02;;;;;;;6.05;4.57;;;19.70;71.70;;;;;;2058176;28;20073;-84
2021/07/11 00:24:03;;;;;;;6.70;4.90;;;19.70;71.70;;;;;;2058417;28;20015;-84
2021/07/11 00:25:06;;;;;;;6.40;4.63;;;19.70;71.70;;;;;;2076340;28;20030;-84
2021/07/11 00:26:07;;;;;;;6.78;4.78;;;19.70;71.90;;;;;;2082740;28;20116;-84
2021/07/11 00:27:08;;;;;;;5.68;4.20;;;19.70;71.90;;;;;;2066471;28;20030;-84
2021/07/11 00:28:08;;;;;;;6.05;4.30;;;19.70;71.90;;;;;;2066139;28;20126;-84
2021/07/11 00:29:09;;;;;;;6.82;4.60;;;19.70;72.60;;;;;;2082404;28;20061;-84
2021/07/11 00:30:11;;;;;;;5.68;4.35;;;19.80;72.10;;;;;;2082569;28;20017;-83
2021/07/11 00:31:12;;;;;;;5.55;4.03;;;19.80;72.10;;;;;;2082502;28;20032;-84
2021/07/11 00:32:13;;;;;;;6.70;4.60;;;19.80;72.10;;;;;;2074283;28;20120;-84
2021/07/11 00:33:13;;;;;;;6.97;4.45;;;19.80;72.20;;;;;;2074208;28;20058;-84
2021/07/11 00:34:14;;;;;;;6.28;4.50;;;19.80;72.20;;;;;;2057891;28;20509;-84
2021/07/11 00:35:15;;;;;;;6.35;4.55;;;19.80;72.20;;;;;;2065605;28;20037;-84
2021/07/11 00:36:16;;;;;;;6.55;4.32;;;19.80;72.20;;;;;;2082358;28;20431;-84
2021/07/11 00:37:16;;;;;;;6.20;4.50;;;19.80;72.20;;;;;;2082626;28;20033;-83
2021/07/11 00:38:17;;;;;;;6.03;4.55;;;19.80;72.30;;;;;;2074230;28;20124;-84
2021/07/11 00:39:18;;;;;;;5.95;4.40;;;19.80;72.30;;;;;;2074251;28;20034;-84
2021/07/11 00:40:21;;;;;;;6.78;4.70;;;19.80;72.40;;;;;;2058112;28;20078;-84
2021/07/11 00:41:21;;;;;;;6.07;4.50;;;19.90;72.50;;;;;;2066532;28;20137;-83
2021/07/11 00:42:22;;;;;;;6.47;4.60;;;19.90;72.50;;;;;;2074291;28;20022;-84
2021/07/11 00:43:22;;;;;;;5.93;4.35;;;19.90;72.50;;;;;;2065957;28;20034;-83
2021/07/11 00:44:23;;;;;;;6.15;4.28;;;19.90;72.50;;;;;;2066163;28;20077;-84
2021/07/11 00:45:25;;;;;;;5.88;4.25;;;19.90;72.60;;;;;;2057936;28;20493;-84
2021/07/11 00:46:27;;;;;;;5.47;4.00;;;19.90;72.60;;;;;;2050801;28;20472;-84
2021/07/11 00:47:28;;;;;;;5.70;4.20;;;19.90;73.30;;;;;;2066554;28;20026;-84
2021/07/11 00:48:29;;;;;;;5.97;4.60;;;19.90;72.70;;;;;;2082369;28;20030;-84
2021/07/11 00:49:29;;;;;;;5.85;4.43;;;19.90;72.70;;;;;;2074144;28;20033;-84
2021/07/11 00:50:31;;;;;;;6.15;3.90;;;19.90;72.70;;;;;;2049915;28;20038;-84
2021/07/11 00:51:33;;;;;;;6.15;4.55;;;19.90;72.70;;;;;;2058255;28;20508;-83
2021/07/11 00:52:33;;;;;;;6.47;4.43;;;19.90;72.80;;;;;;2074333;28;20033;-84
2021/07/11 00:53:34;;;;;;;5.53;4.22;;;19.90;72.80;;;;;;2074261;28;20483;-84
2021/07/11 00:54:35;;;;;;;5.82;4.30;;;19.90;72.90;;;;;;2074044;28;20029;-84
2021/07/11 00:55:36;;;;;;;5.97;4.22;;;19.90;72.90;;;;;;2074198;28;20030;-83
2021/07/11 00:56:38;;;;;;;6.03;4.15;;;19.90;72.90;;;;;;2061218;28;20140;-83
2021/07/11 00:57:39;;;;;;;5.75;4.30;;;19.80;73.00;;;;;;2066472;28;20026;-83
2021/07/11 00:58:40;;;;;;;6.53;4.40;;;19.80;73.10;;;;;;2074249;28;20385;-84
2021/07/11 00:59:41;;;;;;;6.13;4.75;;;19.80;73.30;;;;;;2065944;28;20033;-84
2021/07/11 01:00:49;;;;;;;6.28;4.50;;;19.70;73.40;;;;;;2066234;28;20122;-84
2021/07/11 01:02:09;;;;;;;6.28;4.45;;;19.70;73.60;;;;;;2075363;28;20496;-84
2021/07/11 01:03:29;;;;;;;5.68;4.30;;;19.70;73.90;;;;;;2074010;28;20124;-84
2021/07/11 01:04:40;;;;;;;5.90;4.45;;;19.60;73.70;;;;;;2074151;28;20026;-84
2021/07/11 01:05:42;;;;;;;6.60;4.25;;;19.50;73.90;;;;;;2067460;28;20018;-83
2021/07/11 01:06:47;;;;;;;6.97;4.50;;;19.50;74.10;;;;;;2066177;28;20033;-84
2021/07/11 01:08:04;;;;;;;5.20;3.92;;;19.50;75.00;;;;;;2066487;28;20014;-84
2021/07/11 01:09:11;;;;;;;5.93;4.53;;;19.40;74.50;;;;;;2074065;28;20550;-84
2021/07/11 01:10:31;;;;;;;6.15;4.38;;;19.40;75.40;;;;;;2083008;28;20021;-84
2021/07/11 01:11:41;;;;;;;5.57;4.03;;;19.40;75.00;;;;;;2090844;28;20029;-84
2021/07/11 01:12:46;;;;;;;5.47;4.00;;;19.30;75.60;;;;;;2091109;28;20108;-84
2021/07/11 01:13:48;;;;;;;6.22;4.50;;;19.30;75.20;;;;;;2090451;28;20052;-84
2021/07/11 01:14:50;;;;;;;5.55;4.05;;;19.30;75.30;;;;;;2079044;28;20033;-84
2021/07/11 01:15:53;;;;;;;6.53;4.72;;;19.40;75.50;;;;;;2074052;28;20116;-83
2021/07/11 01:16:55;;;;;;;7.07;4.70;;;19.30;75.60;;;;;;2074394;28;20020;-84
2021/07/11 01:18:05;;;;;;;6.25;4.88;;;19.30;75.60;;;;;;2065885;28;20034;-84
2021/07/11 01:19:19;;;;;;;6.63;4.30;;;19.30;75.80;;;;;;2060539;28;20027;-84
2021/07/11 01:20:40;;;;;;;6.38;4.50;;;19.30;75.80;;;;;;2067468;28;20026;-84
2021/07/11 01:21:52;;;;;;;6.05;4.63;;;19.30;75.90;;;;;;2073901;28;20025;-84
2021/07/11 01:22:56;;;;;;;6.53;4.95;;;19.30;76.00;;;;;;2073920;28;20124;-84
2021/07/11 01:24:04;;;;;;;5.53;4.28;;;19.30;76.00;;;;;;2074469;28;20018;-84
2021/07/11 01:25:08;;;;;;;6.78;4.70;;;19.40;76.80;;;;;;2082840;28;20140;-84
2021/07/11 01:26:11;;;;;;;6.60;4.90;;;19.30;76.20;;;;;;2080398;28;20032;-84
2021/07/11 01:27:12;;;;;;;6.47;4.60;;;19.30;76.30;;;;;;2074361;28;20033;-83
2021/07/11 01:28:16;;;;;;;6.80;5.00;;;19.30;76.40;;;;;;2065632;28;20066;-84
2021/07/11 01:29:19;;;;;;;5.72;4.20;;;19.30;76.50;;;;;;2066017;28;20117;-84
2021/07/11 01:30:20;;;;;;;5.82;4.50;;;19.30;76.60;;;;;;2082052;28;20465;-83
2021/07/11 01:31:22;;;;;;;6.40;4.43;;;19.30;76.70;;;;;;2073910;28;20107;-84
2021/07/11 01:32:24;;;;;;;5.47;4.53;;;19.30;76.80;;;;;;2073893;28;20026;-84
2021/07/11 01:33:30;;;;;;;6.38;4.75;;;19.30;76.90;;;;;;2082300;28;20037;-84
2021/07/11 01:34:30;;;;;;;6.32;4.82;;;19.30;76.90;;;;;;2090665;28;20166;-84
2021/07/11 01:35:33;;;;;;;6.63;4.70;;;19.30;76.90;;;;;;2082003;28;20026;-84
2021/07/11 01:36:33;;;;;;;6.57;5.07;;;19.30;77.00;;;;;;2074066;28;20065;-84
2021/07/11 01:37:35;;;;;;;6.13;4.38;;;19.30;77.00;;;;;;2058108;28;20031;-84
2021/07/11 01:38:37;;;;;;;7.22;5.13;;;19.30;77.00;;;;;;2049797;28;20125;-84
2021/07/11 01:39:38;;;;;;;6.30;4.50;;;19.30;77.00;;;;;;2058283;28;20054;-84
2021/07/11 01:40:42;;;;;;;6.55;4.90;;;19.20;77.00;;;;;;2065947;28;20037;-84
2021/07/11 01:41:45;;;;;;;6.65;5.00;;;19.20;77.10;;;;;;2066177;28;20513;-84
2021/07/11 01:42:47;;;;;;;6.57;4.97;;;19.20;77.80;;;;;;2066324;28;20054;-84
2021/07/11 01:43:54;;;;;;;6.50;5.00;;;19.20;77.30;;;;;;2086634;28;20038;-84
2021/07/11 01:44:56;;;;;;;7.65;4.97;;;19.20;78.00;;;;;;2081805;28;20024;-84
2021/07/11 01:45:57;;;;;;;8.00;5.03;;;19.10;77.40;;;;;;2065810;28;20062;-84
2021/07/11 01:47:00;;;;;;;6.93;4.95;;;19.10;77.40;;;;;;2066025;28;20049;-84
2021/07/11 01:48:01;;;;;;;6.28;4.90;;;19.10;77.40;;;;;;2082218;28;20036;-84
2021/07/11 01:49:03;;;;;;;7.45;5.00;;;19.00;77.50;;;;;;2073761;28;20460;-84
2021/07/11 01:50:06;;;;;;;7.05;4.95;;;19.00;77.50;;;;;;2066199;28;20038;-84
2021/07/11 01:51:06;;;;;;;6.47;4.90;;;19.00;77.60;;;;;;2073811;28;20417;-83
2021/07/11 01:52:08;;;;;;;6.63;4.80;;;19.00;77.60;;;;;;2081998;28;20076;-84
2021/07/11 01:53:08;;;;;;;6.57;5.10;;;19.00;77.60;;;;;;2073742;28;20116;-84
2021/07/11 01:54:09;;;;;;;7.18;5.30;;;19.00;77.70;;;;;;2065580;28;20481;-84
2021/07/11 01:55:11;;;;;;;6.72;5.18;;;19.00;77.70;;;;;;2065655;28;20061;-84
2021/07/11 01:56:13;;;;;;;6.30;4.80;;;19.00;77.70;;;;;;2065534;28;20031;-83
2021/07/11 01:57:14;;;;;;;7.05;4.78;;;19.00;77.80;;;;;;2065644;28;20026;-84
2021/07/11 01:58:15;;;;;;;6.78;5.25;;;18.90;78.00;;;;;;2065645;28;20042;-84
2021/07/11 01:59:15;;;;;;;6.82;4.72;;;18.90;78.10;;;;;;2057648;28;20042;-84
2021/07/11 02:00:17;;;;;;;6.25;4.55;;;18.90;78.10;;;;;;2065981;28;20050;-84
2021/07/11 02:01:19;;;;;;;7.07;5.05;;;18.90;78.20;;;;;;2065763;28;20373;-84
2021/07/11 02:02:19;;;;;;;6.93;4.90;;;18.90;78.20;;;;;;2065679;28;20035;-84
2021/07/11 02:03:22;;;;;;;6.15;4.80;;;18.90;78.20;;;;;;2073507;28;20463;-84
2021/07/11 02:04:23;;;;;;;6.22;4.80;;;18.90;78.30;;;;;;2057736;28;20572;-84
2021/07/11 02:05:23;;;;;;;6.55;4.90;;;18.90;78.30;;;;;;2065590;28;20027;-84
2021/07/11 02:06:24;;;;;;;6.55;4.93;;;18.90;78.30;;;;;;2065638;28;20026;-84
2021/07/11 02:07:25;;;;;;;7.03;5.10;;;18.90;78.30;;;;;;2057423;28;20047;-84
2021/07/11 02:08:25;;;;;;;7.13;5.03;;;18.90;78.30;;;;;;2057465;28;20041;-84
2021/07/11 02:09:26;;;;;;;6.32;4.90;;;18.90;78.30;;;;;;2057530;28;20022;-84
2021/07/11 02:10:27;;;;;;;6.60;5.10;;;18.90;78.30;;;;;;2057586;28;20532;-84
2021/07/11 02:11:28;;;;;;;6.70;5.47;;;18.90;78.30;;;;;;2057521;28;20034;-84
2021/07/11 02:12:31;;;;;;;6.80;5.13;;;18.90;78.30;;;;;;2057755;28;20037;-84
2021/07/11 02:13:49;;;;;;;7.07;5.10;;;18.90;78.30;;;;;;2073595;28;20038;-84
2021/07/11 02:14:52;;;;;;;6.60;5.00;;;18.90;78.30;;;;;;2075911;28;20108;-84
2021/07/11 02:15:54;;;;;;;6.20;4.78;;;18.90;78.30;;;;;;2073634;28;20092;-84
2021/07/11 02:17:10;;;;;;;6.28;5.20;;;18.90;78.30;;;;;;2066255;28;20033;-84
2021/07/11 02:18:14;;;;;;;6.57;5.00;;;18.90;78.20;;;;;;2067137;28;20030;-84
2021/07/11 02:19:17;;;;;;;5.93;4.85;;;18.90;78.30;;;;;;2057881;28;20085;-84
2021/07/11 02:20:19;;;;;;;6.45;5.10;;;18.90;78.30;;;;;;2066042;28;20400;-83
2021/07/11 02:21:23;;;;;;;7.10;5.47;;;18.90;78.30;;;;;;2065495;28;20041;-84
2021/07/11 02:22:24;;;;;;;6.70;5.03;;;18.90;78.30;;;;;;2072967;28;20022;-84
2021/07/11 02:23:29;;;;;;;6.22;4.85;;;18.90;78.20;;;;;;2057405;28;20031;-84
2021/07/11 02:24:35;;;;;;;6.80;5.10;;;18.90;78.30;;;;;;2067155;28;20076;-84
2021/07/11 02:25:36;;;;;;;7.05;5.07;;;18.90;78.30;;;;;;2081628;28;20073;-83
2021/07/11 02:26:38;;;;;;;8.40;5.45;;;18.90;78.30;;;;;;2065411;28;20423;-84
2021/07/11 02:27:39;;;;;;;6.63;5.13;;;18.90;78.30;;;;;;2065450;28;20031;-84
2021/07/11 02:28:40;;;;;;;6.68;5.43;;;18.90;78.30;;;;;;2065445;28;20129;-84
2021/07/11 02:29:44;;;;;;;7.03;5.35;;;18.90;78.30;;;;;;2065814;28;20030;-84
2021/07/11 02:30:52;;;;;;;6.43;5.15;;;18.90;78.30;;;;;;2057423;28;20093;-83
2021/07/11 02:31:53;;;;;;;8.00;5.80;;;18.90;78.90;;;;;;2060969;28;20031;-84
2021/07/11 02:32:54;;;;;;;7.85;5.47;;;19.00;78.30;;;;;;2074433;28;20120;-85
2021/07/11 02:33:55;;;;;;;7.13;5.35;;;19.00;78.30;;;;;;2077514;28;20029;-84
2021/07/11 02:34:59;;;;;;;8.45;5.53;;;19.00;78.30;;;;;;2073502;28;20129;-85
2021/07/11 02:36:02;;;;;;;7.03;5.05;;;19.00;78.30;;;;;;2073666;28;20045;-84
2021/07/11 02:37:04;;;;;;;7.15;5.32;;;19.00;78.30;;;;;;2081622;28;20026;-84
2021/07/11 02:38:07;;;;;;;7.13;5.38;;;19.00;78.20;;;;;;2065285;28;20516;-84
2021/07/11 02:39:14;;;;;;;7.22;5.38;;;19.00;78.20;;;;;;2065343;28;20030;-84
2021/07/11 02:40:15;;;;;;;7.72;5.90;;;19.00;78.20;;;;;;2065985;28;20030;-84
2021/07/11 02:41:18;;;;;;;7.72;5.80;;;19.00;78.20;;;;;;2065497;28;20094;-83
2021/07/11 02:42:21;;;;;;;8.75;5.43;;;19.00;78.20;;;;;;2065229;28;20030;-84
2021/07/11 02:43:23;;;;;;;6.47;5.30;;;19.00;78.30;;;;;;2057987;28;20034;-83
2021/07/11 02:44:25;;;;;;;6.80;5.60;;;19.00;78.30;;;;;;2065359;28;20085;-84
2021/07/11 02:45:26;;;;;;;7.38;5.32;;;19.00;78.30;;;;;;2064771;28;20022;-84
2021/07/11 02:46:32;;;;;;;7.00;5.85;;;18.90;78.30;;;;;;2065261;28;20033;-84
2021/07/11 02:47:35;;;;;;;7.18;5.68;;;19.00;78.40;;;;;;2066111;28;20019;-84
2021/07/11 02:48:36;;;;;;;6.95;5.30;;;19.00;78.50;;;;;;2073406;28;20133;-84
2021/07/11 02:49:41;;;;;;;7.55;5.82;;;19.00;78.50;;;;;;2073470;28;20049;-84
2021/07/11 02:50:46;;;;;;;7.78;6.03;;;18.90;78.50;;;;;;2077118;28;20018;-84
2021/07/11 02:51:54;;;;;;;7.13;5.70;;;19.00;79.20;;;;;;2081615;28;20392;-84
2021/07/11 02:52:55;;;;;;;7.30;5.80;;;19.00;78.60;;;;;;2081430;28;20013;-84
2021/07/11 02:53:59;;;;;;;7.45;5.80;;;19.00;78.60;;;;;;2073198;28;20030;-83
2021/07/11 02:55:05;;;;;;;7.35;6.00;;;19.00;78.60;;;;;;2073728;28;20112;-84
2021/07/11 02:56:06;;;;;;;8.43;6.35;;;19.00;78.60;;;;;;2073345;28;20029;-84
2021/07/11 02:57:08;;;;;;;7.10;5.78;;;19.00;78.80;;;;;;2065177;28;20046;-83
2021/07/11 02:58:14;;;;;;;7.85;6.25;;;19.00;78.60;;;;;;2073282;28;20037;-84
2021/07/11 02:59:16;;;;;;;8.60;6.05;;;19.00;78.60;;;;;;2073335;28;20030;-84
2021/07/11 03:00:17;;;;;;;8.32;6.03;;;19.00;78.70;;;;;;2073358;28;20440;-84
2021/07/11 03:01:18;;;;;;;8.70;6.28;;;19.00;78.80;;;;;;2073518;28;20033;-83
2021/07/11 03:02:20;;;;;;;8.45;6.13;;;19.00;78.80;;;;;;2073182;28;20046;-84
2021/07/11 03:03:22;;;;;;;8.35;6.20;;;19.00;79.50;;;;;;2065443;28;20042;-84
2021/07/11 03:04:24;;;;;;;8.43;6.63;;;19.00;79.00;;;;;;2065402;28;20037;-84
2021/07/11 03:05:25;;;;;;;9.88;6.93;;;18.90;79.00;;;;;;2065567;28;20037;-84
2021/07/11 03:06:25;;;;;;;8.07;6.55;;;18.90;79.10;;;;;;2065444;28;20018;-84
2021/07/11 03:07:27;;;;;;;9.15;6.88;;;18.90;79.30;;;;;;2065074;28;20031;-84
2021/07/11 03:08:28;;;;;;;8.45;6.93;;;18.90;79.50;;;;;;2057318;28;20030;-85
2021/07/11 03:09:29;;;;;;;7.93;6.40;;;18.90;79.70;;;;;;2065567;28;20031;-84
2021/07/11 03:10:29;;;;;;;8.82;7.05;;;18.80;79.80;;;;;;2073669;28;20044;-84
2021/07/11 03:11:31;;;;;;;9.82;7.43;;;18.80;79.90;;;;;;2081081;28;20125;-83
2021/07/11 03:12:34;;;;;;;9.73;7.10;;;18.80;80.00;;;;;;2082325;28;20026;-84
2021/07/11 03:13:35;;;;;;;8.90;6.93;;;18.80;80.20;;;;;;2090100;28;20021;-84
2021/07/11 03:14:38;;;;;;;8.82;7.15;;;18.80;80.40;;;;;;2073357;28;20030;-84
2021/07/11 03:15:39;;;;;;;8.20;6.82;;;18.70;80.50;;;;;;2069376;28;20033;-84
2021/07/11 03:16:48;;;;;;;8.60;6.63;;;18.70;80.60;;;;;;2074860;28;20559;-84
2021/07/11 03:17:50;;;;;;;8.10;6.90;;;18.70;80.70;;;;;;2077073;28;20033;-84
2021/07/11 03:18:54;;;;;;;9.32;7.35;;;18.70;80.80;;;;;;2081300;28;20021;-85
2021/07/11 03:19:56;;;;;;;8.18;6.40;;;18.70;81.00;;;;;;2091055;28;20025;-84
2021/07/11 03:20:57;;;;;;;8.80;6.82;;;18.70;81.10;;;;;;2075643;28;20033;-83
2021/07/11 03:21:59;;;;;;;8.93;7.05;;;18.70;81.30;;;;;;2057190;28;20039;-85
2021/07/11 03:23:00;;;;;;;9.45;6.78;;;18.60;81.40;;;;;;2058017;28;20251;-84
2021/07/11 03:24:03;;;;;;;7.68;6.40;;;18.60;81.50;;;;;;2065693;28;20447;-84
2021/07/11 03:25:07;;;;;;;8.57;6.93;;;18.60;81.60;;;;;;2080062;28;20026;-84
2021/07/11 03:26:09;;;;;;;9.00;7.10;;;18.60;81.70;;;;;;2079270;28;20010;-84
2021/07/11 03:27:10;;;;;;;9.10;7.03;;;18.60;81.70;;;;;;2075060;28;20030;-82
2021/07/11 03:28:10;;;;;;;8.90;6.75;;;18.60;81.80;;;;;;2074773;28;20077;-84
2021/07/11 03:29:25;;;;;;;9.15;7.22;;;18.60;82.50;;;;;;2066155;28;20045;-82
2021/07/11 03:30:35;;;;;;;7.78;6.65;;;18.60;82.00;;;;;;2070275;28;20025;-83
2021/07/11 03:31:39;;;;;;;8.95;7.10;;;18.50;82.60;;;;;;2059702;28;20037;-83
2021/07/11 03:32:45;;;;;;;9.23;7.30;;;18.50;82.10;;;;;;2067505;28;20045;-83
2021/07/11 03:33:52;;;;;;;10.02;7.05;;;18.50;82.30;;;;;;2074160;28;20113;-83
2021/07/11 03:34:53;;;;;;;11.65;7.63;;;18.50;82.40;;;;;;2073399;28;20488;-83
2021/07/11 03:36:02;;;;;;;9.20;7.00;;;18.40;82.40;;;;;;2063754;28;20065;-84
2021/07/11 03:37:08;;;;;;;10.00;7.80;;;18.50;82.60;;;;;;2059857;28;20039;-83
2021/07/11 03:38:13;;;;;;;9.13;7.43;;;18.40;82.60;;;;;;2064917;28;20035;-84
2021/07/11 03:39:14;;;;;;;9.63;7.47;;;18.40;82.80;;;;;;2065750;28;20030;-83
2021/07/11 03:40:26;;;;;;;8.90;7.28;;;18.30;82.90;;;;;;2065199;28;20030;-83
2021/07/11 03:41:31;;;;;;;10.32;7.45;;;18.30;83.00;;;;;;2059968;28;20041;-84
2021/07/11 03:42:35;;;;;;;10.60;7.53;;;18.30;83.10;;;;;;2057637;28;20073;-84
2021/07/11 03:43:39;;;;;;;9.13;7.10;;;18.30;83.10;;;;;;2060866;28;20120;-84
2021/07/11 03:44:42;;;;;;;11.63;7.88;;;18.30;83.20;;;;;;2073210;28;20034;-84
2021/07/11 03:45:46;;;;;;;10.25;7.93;;;18.30;83.30;;;;;;2076041;28;20018;-84
2021/07/11 03:46:51;;;;;;;9.60;7.72;;;18.30;83.30;;;;;;2083382;28;20028;-83
2021/07/11 03:48:02;;;;;;;10.32;7.88;;;18.30;83.50;;;;;;2083097;28;20029;-84
2021/07/11 03:49:09;;;;;;;9.85;8.13;;;18.20;83.60;;;;;;2084545;28;20113;-84
2021/07/11 03:50:12;;;;;;;11.30;8.40;;;18.20;83.80;;;;;;2091218;28;20069;-84
2021/07/11 03:51:14;;;;;;;11.63;8.57;;;18.10;83.90;;;;;;2070269;28;20031;-84
2021/07/11 03:52:21;;;;;;;10.85;8.25;;;18.00;84.00;;;;;;2065128;28;20077;-84
2021/07/11 03:53:25;;;;;;;9.88;7.97;;;18.00;84.30;;;;;;2073392;28;20478;-84
2021/07/11 03:54:27;;;;;;;9.32;7.68;;;18.00;84.50;;;;;;2073445;28;20026;-84
2021/07/11 03:55:29;;;;;;;9.23;7.65;;;17.90;84.60;;;;;;2073313;28;20021;-84
2021/07/11 03:56:32;;;;;;;9.40;7.88;;;17.90;84.90;;;;;;2065494;28;20109;-84
2021/07/11 03:57:33;;;;;;;9.15;7.60;;;17.90;85.00;;;;;;2065431;28;20070;-85
2021/07/11 03:58:38;;;;;;;9.50;7.10;;;17.80;85.00;;;;;;2065089;28;20023;-84
2021/07/11 03:59:40;;;;;;;9.13;7.00;;;17.80;85.20;;;;;;2065899;28;20124;-84
2021/07/11 04:00:43;;;;;;;8.45;7.15;;;17.80;85.20;;;;;;2073294;28;20022;-84
2021/07/11 04:01:46;;;;;;;9.63;7.53;;;17.90;85.30;;;;;;2073455;28;20457;-84
2021/07/11 04:02:49;;;;;;;9.57;7.10;;;17.80;85.30;;;;;;2065593;28;20027;-84
2021/07/11 04:03:51;;;;;;;9.75;7.50;;;17.80;85.20;;;;;;2065323;28;20073;-85
2021/07/11 04:04:52;;;;;;;8.77;7.05;;;17.80;85.30;;;;;;2065182;28;20019;-84
2021/07/11 04:05:54;;;;;;;9.30;7.50;;;17.80;85.30;;;;;;2073398;28;20041;-85
2021/07/11 04:06:55;;;;;;;9.80;7.80;;;17.80;85.30;;;;;;2073433;28;20393;-85
2021/07/11 04:07:57;;;;;;;9.32;7.13;;;17.80;85.40;;;;;;2065158;28;20023;-85
2021/07/11 04:09:01;;;;;;;9.32;7.10;;;17.80;85.50;;;;;;2065052;28;20034;-85
2021/07/11 04:10:03;;;;;;;10.63;7.38;;;17.80;85.60;;;;;;2073592;28;20018;-85
2021/07/11 04:11:04;;;;;;;8.88;6.90;;;17.70;85.60;;;;;;2073321;28;20025;-85
2021/07/11 04:12:07;;;;;;;9.38;7.25;;;17.70;85.70;;;;;;2073202;28;20030;-85
2021/07/11 04:13:09;;;;;;;9.32;7.40;;;17.80;85.90;;;;;;2073357;28;20026;-85
2021/07/11 04:14:10;;;;;;;9.07;7.65;;;17.80;85.90;;;;;;2080982;28;20554;-85
2021/07/11 04:15:11;;;;;;;8.95;7.22;;;17.70;85.90;;;;;;2080915;28;20029;-85
2021/07/11 04:16:13;;;;;;;9.68;7.53;;;17.80;85.90;;;;;;2058352;28;20440;-85
2021/07/11 04:17:17;;;;;;;9.18;7.60;;;17.80;85.90;;;;;;2049027;28;20478;-85
2021/07/11 04:18:20;;;;;;;10.52;8.18;;;17.80;85.90;;;;;;2057305;28;20026;-84
2021/07/11 04:19:27;;;;;;;9.73;8.02;;;17.80;85.90;;;;;;2067827;28;20032;-85
2021/07/11 04:20:30;;;;;;;9.80;8.15;;;17.70;85.90;;;;;;2064703;28;20416;-85
2021/07/11 04:21:33;;;;;;;10.48;7.65;;;17.70;86.00;;;;;;2065031;28;20030;-85
2021/07/11 04:22:37;;;;;;;10.40;8.07;;;17.70;86.70;;;;;;2072981;28;20031;-85
2021/07/11 04:23:39;;;;;;;10.75;8.43;;;17.70;86.10;;;;;;2064866;28;20031;-85
2021/07/11 04:24:42;;;;;;;9.90;8.20;;;17.70;86.20;;;;;;2064808;28;20050;-85
2021/07/11 04:25:44;;;;;;;11.27;8.45;;;17.70;86.20;;;;;;2065291;28;20046;-85
2021/07/11 04:26:45;;;;;;;10.15;8.02;;;17.70;86.20;;;;;;2064658;28;20468;-85
2021/07/11 04:27:46;;;;;;;10.73;8.32;;;17.70;86.20;;;;;;2065087;28;20113;-84
2021/07/11 04:28:48;;;;;;;10.23;8.20;;;17.70;86.20;;;;;;2064801;28;20038;-84
2021/07/11 04:29:50;;;;;;;10.40;8.82;;;17.70;86.30;;;;;;2064798;28;20133;-85
2021/07/11 04:30:52;;;;;;;12.35;8.65;;;17.70;86.30;;;;;;2064898;28;20440;-85
2021/07/11 04:31:52;;;;;;;10.43;8.60;;;17.70;86.40;;;;;;2064799;28;20125;-85
2021/07/11 04:32:54;;;;;;;10.75;8.38;;;17.70;86.40;;;;;;2068617;28;20029;-85
2021/07/11 04:33:55;;;;;;;11.50;8.55;;;17.70;86.40;;;;;;2056958;28;20031;-85
2021/07/11 04:34:56;;;;;;;12.35;8.75;;;17.70;86.40;;;;;;2056829;28;20504;-85
2021/07/11 04:35:57;;;;;;;10.75;8.63;;;17.70;86.40;;;;;;2048792;28;20114;-85
2021/07/11 04:37:00;;;;;;;9.60;8.00;;;17.70;86.40;;;;;;2064730;28;20128;-85
2021/07/11 04:38:00;;;;;;;10.98;8.63;;;17.70;86.40;;;;;;2048837;28;20034;-85
2021/07/11 04:39:01;;;;;;;10.65;8.50;;;17.80;86.50;;;;;;2056884;28;20070;-85
2021/07/11 04:40:03;;;;;;;9.75;7.80;;;17.80;86.40;;;;;;2048634;28;20453;-85
2021/07/11 04:41:06;;;;;;;10.98;8.45;;;17.80;86.50;;;;;;2041350;28;20566;-85
2021/07/11 04:42:07;;;;;;;11.05;8.80;;;17.80;86.50;;;;;;2065268;28;20085;-85
2021/07/11 04:43:08;;;;;;;10.52;8.45;;;17.80;86.50;;;;;;2048595;28;20420;-85
2021/07/11 04:44:09;;;;;;;10.43;8.80;;;17.80;86.50;;;;;;2048825;28;20035;-85
2021/07/11 04:45:10;;;;;;;11.95;8.93;;;17.80;86.50;;;;;;2070158;28;20037;-85
2021/07/11 04:46:10;;;;;;;10.75;8.43;;;17.80;86.60;;;;;;2056547;28;20023;-85
2021/07/11 04:47:14;;;;;;;11.07;8.65;;;17.80;86.60;;;;;;2048695;28;20127;-85
2021/07/11 04:48:15;;;;;;;11.05;8.95;;;17.80;86.60;;;;;;2049726;28;20027;-85
2021/07/11 04:49:16;;;;;;;9.45;7.95;;;17.90;86.70;;;;;;2057268;28;20039;-85
2021/07/11 04:50:17;;;;;;;10.00;8.25;;;17.80;86.60;;;;;;2065002;28;20413;-85
2021/07/11 04:51:17;;;;;;;10.32;8.85;;;17.90;86.70;;;;;;2048348;28;20051;-85
2021/07/11 04:52:18;;;;;;;10.68;8.55;;;17.90;86.50;;;;;;2040827;28;20028;-85
2021/07/11 04:53:19;;;;;;;10.38;8.55;;;17.90;86.50;;;;;;2056777;28;20039;-85
2021/07/11 04:54:20;;;;;;;9.70;7.97;;;17.90;86.40;;;;;;2064744;28;20081;-85
2021/07/11 04:55:21;;;;;;;9.95;8.50;;;17.90;86.40;;;;;;2056672;28;20114;-85
2021/07/11 04:56:21;;;;;;;11.38;8.73;;;17.90;86.40;;;;;;2048727;28;20062;-85
2021/07/11 04:57:22;;;;;;;10.38;8.60;;;17.90;86.50;;;;;;2048569;28;20031;-85
2021/07/11 04:58:23;;;;;;;11.88;8.88;;;17.90;86.60;;;;;;2056871;28;20034;-85
2021/07/11 04:59:24;;;;;;;10.27;7.95;;;17.90;86.60;;;;;;2056439;28;20133;-85
2021/07/11 05:00:25;;;;;;;9.50;8.02;;;17.80;86.60;;;;;;2040905;29;20028;-85
2021/07/11 05:01:25;;;;;;;9.27;7.88;;;17.80;86.70;;;;;;2056884;28;20022;-85
2021/07/11 05:02:26;;;;;;;10.68;8.52;;;17.80;86.70;;;;;;2072946;28;20034;-85
2021/07/11 05:03:27;;;;;;;10.07;7.70;;;17.90;86.80;;;;;;2064953;28;20113;-85
2021/07/11 05:04:29;;;;;;;10.80;8.13;;;17.90;86.80;;;;;;2057530;28;20038;-85
2021/07/11 05:05:29;;;;;;;11.38;8.57;;;17.90;86.70;;;;;;2066592;28;20521;-84
2021/07/11 05:06:30;;;;;;;11.93;9.63;;;17.90;86.70;;;;;;2065858;28;20042;-85
2021/07/11 05:07:31;;;;;;;12.07;9.07;;;17.90;86.50;;;;;;2074239;28;20022;-85
2021/07/11 05:08:31;;;;;;;11.35;9.05;;;17.90;86.50;;;;;;2082547;28;20454;-85
2021/07/11 05:09:32;;;;;;;10.70;8.98;;;17.90;86.50;;;;;;2066231;28;20074;-85
2021/07/11 05:10:33;;;;;;;9.95;8.45;;;17.90;86.50;;;;;;2058070;28;20027;-84
2021/07/11 05:11:34;;;;;;;10.27;8.23;;;17.90;86.40;;;;;;2074305;28;20140;-85
2021/07/11 05:12:35;;;;;;;10.88;8.55;;;18.00;86.50;;;;;;2082422;28;20051;-84
2021/07/11 05:13:36;;;;;;;11.30;8.98;;;18.00;86.50;;;;;;2082414;28;20076;-85
2021/07/11 05:14:36;;;;;;;11.48;8.90;;;18.00;87.00;;;;;;2066182;28;20080;-85
2021/07/11 05:15:37;;;;;;;10.63;8.73;;;18.00;86.30;;;;;;2071602;28;20109;-85
2021/07/11 05:16:37;;;;;;;10.95;9.10;;;18.00;86.30;;;;;;2066057;28;20027;-85
2021/07/11 05:17:38;;;;;;;11.13;8.77;;;18.00;86.20;;;;;;2057873;28;20057;-85
2021/07/11 05:18:39;;;;;;;10.55;7.80;;;18.10;86.30;;;;;;2058172;28;20133;-85
2021/07/11 05:19:40;;;;;;;10.32;8.98;;;18.10;86.30;;;;;;2066163;28;20113;-85
2021/07/11 05:20:40;;;;;;;10.57;8.30;;;18.10;86.30;;;;;;2073717;28;20092;-84
2021/07/11 05:21:41;;;;;;;11.15;8.73;;;18.10;86.30;;;;;;2082496;28;20033;-84
2021/07/11 05:22:42;;;;;;;10.57;8.93;;;18.10;86.20;;;;;;2074302;28;20030;-85
2021/07/11 05:23:42;;;;;;;11.10;8.75;;;18.20;86.80;;;;;;2068296;28;20388;-85
2021/07/11 05:24:43;;;;;;;9.88;8.30;;;18.20;86.20;;;;;;2074219;28;20034;-85
2021/07/11 05:25:44;;;;;;;11.77;8.80;;;18.20;86.10;;;;;;2066122;28;20472;-85